sensor_id;sensor_type;location;lat;lon;timestamp;P1;durP1;ratioP1;P2;durP2;ratioP2
66012;SDS011;52783;50.502;8.190;2023-07-31T00:01:07;11.02;;;2.03;;
66012;SDS011;52783;50.502;8.190;2023-07-31T00:03:32;4.88;;;2.45;;
66012;SDS011;52783;50.502;8.190;2023-07-31T00:05:58;7.72;;;2.35;;
66012;SDS011;52783;50.502;8.190;2023-07-31T00:08:23;6.43;;;2.08;;
66012;SDS011;52783;50.502;8.190;2023-07-31T00:10:51;6.72;;;2.20;;
66012;SDS011;52783;50.502;8.190;2023-07-31T00:13:17;6.85;;;2.70;;
66012;SDS011;52783;50.502;8.190;2023-07-31T00:15:43;6.07;;;2.50;;
66012;SDS011;52783;50.502;8.190;2023-07-31T00:18:08;4.35;;;2.08;;
66012;SDS011;52783;50.502;8.190;2023-07-31T00:20:34;9.70;;;2.90;;
66012;SDS011;52783;50.502;8.190;2023-07-31T00:23:00;7.57;;;2.30;;
66012;SDS011;52783;50.502;8.190;2023-07-31T00:25:25;6.50;;;2.38;;
66012;SDS011;52783;50.502;8.190;2023-07-31T00:27:51;5.97;;;2.60;;
66012;SDS011;52783;50.502;8.190;2023-07-31T00:30:16;8.77;;;2.58;;
66012;SDS011;52783;50.502;8.190;2023-07-31T00:32:42;5.63;;;2.28;;
66012;SDS011;52783;50.502;8.190;2023-07-31T00:35:07;5.53;;;2.28;;
66012;SDS011;52783;50.502;8.190;2023-07-31T00:37:33;6.07;;;2.92;;
66012;SDS011;52783;50.502;8.190;2023-07-31T00:39:58;4.63;;;2.45;;
66012;SDS011;52783;50.502;8.190;2023-07-31T00:42:24;8.02;;;2.20;;
66012;SDS011;52783;50.502;8.190;2023-07-31T00:44:49;4.25;;;2.50;;
66012;SDS011;52783;50.502;8.190;2023-07-31T00:47:15;7.35;;;2.55;;
66012;SDS011;52783;50.502;8.190;2023-07-31T00:49:40;16.85;;;2.55;;
66012;SDS011;52783;50.502;8.190;2023-07-31T00:52:06;7.43;;;2.03;;
66012;SDS011;52783;50.502;8.190;2023-07-31T00:54:34;5.05;;;2.88;;
66012;SDS011;52783;50.502;8.190;2023-07-31T00:56:59;5.63;;;2.53;;
66012;SDS011;52783;50.502;8.190;2023-07-31T00:59:25;5.82;;;2.83;;
66012;SDS011;52783;50.502;8.190;2023-07-31T01:01:50;7.70;;;2.60;;
66012;SDS011;52783;50.502;8.190;2023-07-31T01:04:17;5.32;;;2.50;;
66012;SDS011;52783;50.502;8.190;2023-07-31T01:06:48;9.68;;;2.15;;
66012;SDS011;52783;50.502;8.190;2023-07-31T01:09:47;6.13;;;2.20;;
66012;SDS011;52783;50.502;8.190;2023-07-31T01:12:24;11.30;;;2.50;;
66012;SDS011;52783;50.502;8.190;2023-07-31T01:15:08;9.07;;;2.67;;
66012;SDS011;52783;50.502;8.190;2023-07-31T01:21:03;7.97;;;2.25;;
66012;SDS011;52783;50.502;8.190;2023-07-31T01:27:15;6.95;;;2.88;;
66012;SDS011;52783;50.502;8.190;2023-07-31T01:30:20;8.32;;;3.05;;
66012;SDS011;52783;50.502;8.190;2023-07-31T01:32:42;8.60;;;2.45;;
66012;SDS011;52783;50.502;8.190;2023-07-31T01:35:09;6.70;;;2.70;;
66012;SDS011;52783;50.502;8.190;2023-07-31T01:37:34;6.50;;;2.20;;
66012;SDS011;52783;50.502;8.190;2023-07-31T01:40:00;11.65;;;2.70;;
66012;SDS011;52783;50.502;8.190;2023-07-31T01:42:26;7.60;;;2.78;;
66012;SDS011;52783;50.502;8.190;2023-07-31T01:44:51;7.13;;;2.55;;
66012;SDS011;52783;50.502;8.190;2023-07-31T01:47:17;10.60;;;2.55;;
66012;SDS011;52783;50.502;8.190;2023-07-31T01:49:42;7.30;;;2.40;;
66012;SDS011;52783;50.502;8.190;2023-07-31T01:52:08;6.35;;;2.55;;
66012;SDS011;52783;50.502;8.190;2023-07-31T01:54:33;7.78;;;2.55;;
66012;SDS011;52783;50.502;8.190;2023-07-31T01:56:59;7.80;;;2.72;;
66012;SDS011;52783;50.502;8.190;2023-07-31T01:59:25;6.72;;;2.40;;
66012;SDS011;52783;50.502;8.190;2023-07-31T02:01:50;8.50;;;2.60;;
66012;SDS011;52783;50.502;8.190;2023-07-31T02:04:16;8.23;;;2.47;;
66012;SDS011;52783;50.502;8.190;2023-07-31T02:06:43;5.85;;;2.60;;
66012;SDS011;52783;50.502;8.190;2023-07-31T02:09:09;6.22;;;2.65;;
66012;SDS011;52783;50.502;8.190;2023-07-31T02:11:34;4.13;;;2.42;;
66012;SDS011;52783;50.502;8.190;2023-07-31T02:14:00;8.13;;;3.03;;
66012;SDS011;52783;50.502;8.190;2023-07-31T02:16:25;8.20;;;3.00;;
66012;SDS011;52783;50.502;8.190;2023-07-31T02:18:51;9.32;;;2.85;;
66012;SDS011;52783;50.502;8.190;2023-07-31T02:21:16;9.70;;;4.05;;
66012;SDS011;52783;50.502;8.190;2023-07-31T02:23:42;8.98;;;2.60;;
66012;SDS011;52783;50.502;8.190;2023-07-31T02:26:07;5.47;;;2.50;;
66012;SDS011;52783;50.502;8.190;2023-07-31T02:28:33;7.47;;;2.83;;
66012;SDS011;52783;50.502;8.190;2023-07-31T02:30:58;6.43;;;2.58;;
66012;SDS011;52783;50.502;8.190;2023-07-31T02:33:24;4.13;;;2.63;;
66012;SDS011;52783;50.502;8.190;2023-07-31T02:35:49;5.03;;;2.78;;
66012;SDS011;52783;50.502;8.190;2023-07-31T02:38:15;6.65;;;3.10;;
66012;SDS011;52783;50.502;8.190;2023-07-31T02:40:40;8.00;;;2.78;;
66012;SDS011;52783;50.502;8.190;2023-07-31T02:43:06;5.22;;;2.65;;
66012;SDS011;52783;50.502;8.190;2023-07-31T02:45:32;4.95;;;2.40;;
66012;SDS011;52783;50.502;8.190;2023-07-31T02:47:58;9.75;;;2.40;;
66012;SDS011;52783;50.502;8.190;2023-07-31T02:50:24;5.40;;;2.35;;
66012;SDS011;52783;50.502;8.190;2023-07-31T02:52:49;7.50;;;2.40;;
66012;SDS011;52783;50.502;8.190;2023-07-31T02:55:15;6.75;;;2.63;;
66012;SDS011;52783;50.502;8.190;2023-07-31T02:57:40;4.25;;;2.03;;
66012;SDS011;52783;50.502;8.190;2023-07-31T03:00:06;4.75;;;2.70;;
66012;SDS011;52783;50.502;8.190;2023-07-31T03:02:32;4.18;;;2.60;;
66012;SDS011;52783;50.502;8.190;2023-07-31T03:04:57;4.97;;;2.53;;
66012;SDS011;52783;50.502;8.190;2023-07-31T03:07:23;6.50;;;2.63;;
66012;SDS011;52783;50.502;8.190;2023-07-31T03:09:48;7.18;;;2.53;;
66012;SDS011;52783;50.502;8.190;2023-07-31T03:12:14;3.83;;;2.38;;
66012;SDS011;52783;50.502;8.190;2023-07-31T03:14:40;5.57;;;2.42;;
66012;SDS011;52783;50.502;8.190;2023-07-31T03:17:05;3.65;;;2.40;;
66012;SDS011;52783;50.502;8.190;2023-07-31T03:19:31;5.28;;;2.65;;
66012;SDS011;52783;50.502;8.190;2023-07-31T03:21:57;5.68;;;2.28;;
66012;SDS011;52783;50.502;8.190;2023-07-31T03:24:23;6.90;;;2.50;;
66012;SDS011;52783;50.502;8.190;2023-07-31T03:26:48;5.32;;;2.80;;
66012;SDS011;52783;50.502;8.190;2023-07-31T03:29:14;7.90;;;2.38;;
66012;SDS011;52783;50.502;8.190;2023-07-31T03:31:39;5.05;;;2.70;;
66012;SDS011;52783;50.502;8.190;2023-07-31T03:34:05;6.35;;;2.72;;
66012;SDS011;52783;50.502;8.190;2023-07-31T03:36:30;5.57;;;3.00;;
66012;SDS011;52783;50.502;8.190;2023-07-31T03:38:56;4.82;;;2.22;;
66012;SDS011;52783;50.502;8.190;2023-07-31T03:41:22;6.82;;;2.58;;
66012;SDS011;52783;50.502;8.190;2023-07-31T03:43:49;5.15;;;3.05;;
66012;SDS011;52783;50.502;8.190;2023-07-31T03:46:17;6.57;;;2.90;;
66012;SDS011;52783;50.502;8.190;2023-07-31T03:48:42;7.03;;;2.70;;
66012;SDS011;52783;50.502;8.190;2023-07-31T03:51:08;6.43;;;2.70;;
66012;SDS011;52783;50.502;8.190;2023-07-31T03:53:33;14.25;;;2.88;;
66012;SDS011;52783;50.502;8.190;2023-07-31T03:55:59;4.97;;;2.70;;
66012;SDS011;52783;50.502;8.190;2023-07-31T03:58:24;6.75;;;2.90;;
66012;SDS011;52783;50.502;8.190;2023-07-31T04:00:50;4.68;;;2.42;;
66012;SDS011;52783;50.502;8.190;2023-07-31T04:03:15;9.18;;;2.45;;
66012;SDS011;52783;50.502;8.190;2023-07-31T04:05:41;8.38;;;3.30;;
66012;SDS011;52783;50.502;8.190;2023-07-31T04:08:07;11.18;;;2.63;;
66012;SDS011;52783;50.502;8.190;2023-07-31T04:10:32;6.57;;;2.83;;
66012;SDS011;52783;50.502;8.190;2023-07-31T04:12:59;5.93;;;2.95;;
66012;SDS011;52783;50.502;8.190;2023-07-31T04:15:25;6.13;;;2.90;;
66012;SDS011;52783;50.502;8.190;2023-07-31T04:17:51;7.28;;;3.03;;
66012;SDS011;52783;50.502;8.190;2023-07-31T04:20:16;5.25;;;2.78;;
66012;SDS011;52783;50.502;8.190;2023-07-31T04:22:42;5.57;;;3.13;;
66012;SDS011;52783;50.502;8.190;2023-07-31T04:25:07;4.45;;;2.50;;
66012;SDS011;52783;50.502;8.190;2023-07-31T04:27:33;5.35;;;2.70;;
66012;SDS011;52783;50.502;8.190;2023-07-31T04:29:59;3.83;;;2.58;;
66012;SDS011;52783;50.502;8.190;2023-07-31T04:32:24;5.72;;;3.00;;
66012;SDS011;52783;50.502;8.190;2023-07-31T04:34:50;4.97;;;2.47;;
66012;SDS011;52783;50.502;8.190;2023-07-31T04:37:15;6.55;;;3.00;;
66012;SDS011;52783;50.502;8.190;2023-07-31T04:39:41;5.57;;;2.72;;
66012;SDS011;52783;50.502;8.190;2023-07-31T04:42:06;10.35;;;2.70;;
66012;SDS011;52783;50.502;8.190;2023-07-31T04:44:32;3.88;;;2.47;;
66012;SDS011;52783;50.502;8.190;2023-07-31T04:46:57;7.32;;;2.47;;
66012;SDS011;52783;50.502;8.190;2023-07-31T04:49:23;3.67;;;2.35;;
66012;SDS011;52783;50.502;8.190;2023-07-31T04:51:48;5.18;;;2.70;;
66012;SDS011;52783;50.502;8.190;2023-07-31T04:54:14;4.85;;;2.70;;
66012;SDS011;52783;50.502;8.190;2023-07-31T04:56:40;4.63;;;2.80;;
66012;SDS011;52783;50.502;8.190;2023-07-31T04:59:06;8.25;;;2.83;;
66012;SDS011;52783;50.502;8.190;2023-07-31T05:01:31;6.10;;;2.67;;
66012;SDS011;52783;50.502;8.190;2023-07-31T05:03:57;5.45;;;2.40;;
66012;SDS011;52783;50.502;8.190;2023-07-31T05:06:22;5.78;;;2.65;;
66012;SDS011;52783;50.502;8.190;2023-07-31T05:08:48;4.05;;;2.60;;
66012;SDS011;52783;50.502;8.190;2023-07-31T05:11:13;7.60;;;2.42;;
66012;SDS011;52783;50.502;8.190;2023-07-31T05:13:39;6.43;;;2.55;;
66012;SDS011;52783;50.502;8.190;2023-07-31T05:16:05;6.25;;;2.90;;
66012;SDS011;52783;50.502;8.190;2023-07-31T05:18:30;3.97;;;2.30;;
66012;SDS011;52783;50.502;8.190;2023-07-31T05:20:56;7.25;;;2.42;;
66012;SDS011;52783;50.502;8.190;2023-07-31T05:23:21;4.90;;;2.50;;
66012;SDS011;52783;50.502;8.190;2023-07-31T05:25:47;5.40;;;2.70;;
66012;SDS011;52783;50.502;8.190;2023-07-31T05:28:12;4.57;;;2.60;;
66012;SDS011;52783;50.502;8.190;2023-07-31T05:30:38;6.13;;;2.53;;
66012;SDS011;52783;50.502;8.190;2023-07-31T05:33:03;5.97;;;2.50;;
66012;SDS011;52783;50.502;8.190;2023-07-31T05:35:29;8.48;;;2.42;;
66012;SDS011;52783;50.502;8.190;2023-07-31T05:37:54;3.50;;;2.50;;
66012;SDS011;52783;50.502;8.190;2023-07-31T05:40:20;7.35;;;2.30;;
66012;SDS011;52783;50.502;8.190;2023-07-31T05:42:45;5.15;;;2.60;;
66012;SDS011;52783;50.502;8.190;2023-07-31T05:45:12;4.60;;;2.47;;
66012;SDS011;52783;50.502;8.190;2023-07-31T05:47:38;4.30;;;2.40;;
66012;SDS011;52783;50.502;8.190;2023-07-31T05:50:04;4.55;;;2.65;;
66012;SDS011;52783;50.502;8.190;2023-07-31T05:52:30;4.70;;;2.80;;
66012;SDS011;52783;50.502;8.190;2023-07-31T05:54:55;5.57;;;2.97;;
66012;SDS011;52783;50.502;8.190;2023-07-31T05:57:21;7.10;;;2.47;;
66012;SDS011;52783;50.502;8.190;2023-07-31T05:59:47;6.97;;;2.65;;
66012;SDS011;52783;50.502;8.190;2023-07-31T06:02:12;3.97;;;2.38;;
66012;SDS011;52783;50.502;8.190;2023-07-31T06:04:38;8.75;;;2.35;;
66012;SDS011;52783;50.502;8.190;2023-07-31T06:07:03;4.25;;;2.58;;
66012;SDS011;52783;50.502;8.190;2023-07-31T06:09:29;3.22;;;2.50;;
66012;SDS011;52783;50.502;8.190;2023-07-31T06:11:55;6.60;;;2.58;;
66012;SDS011;52783;50.502;8.190;2023-07-31T06:14:20;4.05;;;2.33;;
66012;SDS011;52783;50.502;8.190;2023-07-31T06:16:46;4.80;;;2.55;;
66012;SDS011;52783;50.502;8.190;2023-07-31T06:19:11;5.22;;;2.83;;
66012;SDS011;52783;50.502;8.190;2023-07-31T06:21:37;9.32;;;3.25;;
66012;SDS011;52783;50.502;8.190;2023-07-31T06:24:04;6.72;;;3.05;;
66012;SDS011;52783;50.502;8.190;2023-07-31T06:26:30;5.05;;;2.40;;
66012;SDS011;52783;50.502;8.190;2023-07-31T06:28:56;4.70;;;2.47;;
66012;SDS011;52783;50.502;8.190;2023-07-31T06:31:21;4.93;;;2.67;;
66012;SDS011;52783;50.502;8.190;2023-07-31T06:33:50;8.90;;;3.05;;
66012;SDS011;52783;50.502;8.190;2023-07-31T06:36:16;6.22;;;2.40;;
66012;SDS011;52783;50.502;8.190;2023-07-31T06:38:42;6.30;;;3.00;;
66012;SDS011;52783;50.502;8.190;2023-07-31T06:41:08;6.50;;;2.90;;
66012;SDS011;52783;50.502;8.190;2023-07-31T06:43:34;6.40;;;2.47;;
66012;SDS011;52783;50.502;8.190;2023-07-31T06:46:04;5.50;;;2.67;;
66012;SDS011;52783;50.502;8.190;2023-07-31T06:48:35;7.50;;;2.80;;
66012;SDS011;52783;50.502;8.190;2023-07-31T06:51:02;9.73;;;2.88;;
66012;SDS011;52783;50.502;8.190;2023-07-31T06:53:28;5.30;;;2.50;;
66012;SDS011;52783;50.502;8.190;2023-07-31T06:55:54;6.97;;;2.63;;
66012;SDS011;52783;50.502;8.190;2023-07-31T06:58:20;6.18;;;2.88;;
66012;SDS011;52783;50.502;8.190;2023-07-31T07:00:45;10.30;;;2.60;;
66012;SDS011;52783;50.502;8.190;2023-07-31T07:03:11;5.68;;;2.58;;
66012;SDS011;52783;50.502;8.190;2023-07-31T07:05:36;7.40;;;2.90;;
66012;SDS011;52783;50.502;8.190;2023-07-31T07:08:02;6.60;;;3.08;;
66012;SDS011;52783;50.502;8.190;2023-07-31T07:10:27;5.97;;;2.92;;
66012;SDS011;52783;50.502;8.190;2023-07-31T07:12:53;9.70;;;2.90;;
66012;SDS011;52783;50.502;8.190;2023-07-31T07:15:20;7.53;;;3.15;;
66012;SDS011;52783;50.502;8.190;2023-07-31T07:17:46;7.45;;;3.20;;
66012;SDS011;52783;50.502;8.190;2023-07-31T07:20:11;6.28;;;2.63;;
66012;SDS011;52783;50.502;8.190;2023-07-31T07:22:37;5.07;;;3.00;;
66012;SDS011;52783;50.502;8.190;2023-07-31T07:25:03;5.68;;;2.92;;
66012;SDS011;52783;50.502;8.190;2023-07-31T07:27:30;5.63;;;2.92;;
66012;SDS011;52783;50.502;8.190;2023-07-31T07:29:55;8.10;;;3.05;;
66012;SDS011;52783;50.502;8.190;2023-07-31T07:32:21;6.72;;;3.10;;
66012;SDS011;52783;50.502;8.190;2023-07-31T07:34:47;6.72;;;3.30;;
66012;SDS011;52783;50.502;8.190;2023-07-31T07:37:13;6.40;;;3.00;;
66012;SDS011;52783;50.502;8.190;2023-07-31T07:39:39;9.52;;;3.00;;
66012;SDS011;52783;50.502;8.190;2023-07-31T07:42:06;9.43;;;3.60;;
66012;SDS011;52783;50.502;8.190;2023-07-31T07:44:31;10.77;;;3.03;;
66012;SDS011;52783;50.502;8.190;2023-07-31T07:46:57;10.10;;;3.40;;
66012;SDS011;52783;50.502;8.190;2023-07-31T07:49:22;6.78;;;2.97;;
66012;SDS011;52783;50.502;8.190;2023-07-31T07:51:48;6.53;;;2.75;;
66012;SDS011;52783;50.502;8.190;2023-07-31T07:54:14;7.22;;;2.90;;
66012;SDS011;52783;50.502;8.190;2023-07-31T07:56:42;8.43;;;3.33;;
66012;SDS011;52783;50.502;8.190;2023-07-31T07:59:07;11.02;;;3.08;;
66012;SDS011;52783;50.502;8.190;2023-07-31T08:01:33;6.07;;;2.92;;
66012;SDS011;52783;50.502;8.190;2023-07-31T08:03:59;9.38;;;3.45;;
66012;SDS011;52783;50.502;8.190;2023-07-31T08:06:25;7.50;;;3.22;;
66012;SDS011;52783;50.502;8.190;2023-07-31T08:08:50;13.73;;;3.30;;
66012;SDS011;52783;50.502;8.190;2023-07-31T08:11:16;8.90;;;3.53;;
66012;SDS011;52783;50.502;8.190;2023-07-31T08:13:41;4.45;;;2.80;;
66012;SDS011;52783;50.502;8.190;2023-07-31T08:16:07;17.27;;;3.60;;
66012;SDS011;52783;50.502;8.190;2023-07-31T08:18:32;9.13;;;3.30;;
66012;SDS011;52783;50.502;8.190;2023-07-31T08:20:58;8.98;;;3.15;;
66012;SDS011;52783;50.502;8.190;2023-07-31T08:23:23;8.15;;;2.90;;
66012;SDS011;52783;50.502;8.190;2023-07-31T08:25:49;10.75;;;3.20;;
66012;SDS011;52783;50.502;8.190;2023-07-31T08:28:15;7.28;;;3.20;;
66012;SDS011;52783;50.502;8.190;2023-07-31T08:30:41;9.65;;;3.10;;
66012;SDS011;52783;50.502;8.190;2023-07-31T08:33:07;9.85;;;3.58;;
66012;SDS011;52783;50.502;8.190;2023-07-31T08:35:33;7.53;;;3.33;;
66012;SDS011;52783;50.502;8.190;2023-07-31T08:37:58;7.57;;;3.15;;
66012;SDS011;52783;50.502;8.190;2023-07-31T08:40:24;7.68;;;3.30;;
66012;SDS011;52783;50.502;8.190;2023-07-31T08:42:53;10.60;;;3.80;;
66012;SDS011;52783;50.502;8.190;2023-07-31T08:45:27;9.27;;;3.38;;
66012;SDS011;52783;50.502;8.190;2023-07-31T08:47:53;6.13;;;3.03;;
66012;SDS011;52783;50.502;8.190;2023-07-31T08:50:21;8.00;;;3.15;;
66012;SDS011;52783;50.502;8.190;2023-07-31T08:52:47;11.07;;;3.85;;
66012;SDS011;52783;50.502;8.190;2023-07-31T08:55:13;5.60;;;3.13;;
66012;SDS011;52783;50.502;8.190;2023-07-31T08:57:39;6.28;;;3.15;;
66012;SDS011;52783;50.502;8.190;2023-07-31T09:00:07;7.43;;;3.63;;
66012;SDS011;52783;50.502;8.190;2023-07-31T09:02:56;6.93;;;3.30;;
66012;SDS011;52783;50.502;8.190;2023-07-31T09:05:24;7.93;;;3.67;;
66012;SDS011;52783;50.502;8.190;2023-07-31T09:07:52;8.20;;;3.33;;
66012;SDS011;52783;50.502;8.190;2023-07-31T09:10:20;8.68;;;3.58;;
66012;SDS011;52783;50.502;8.190;2023-07-31T09:12:45;11.38;;;4.03;;
66012;SDS011;52783;50.502;8.190;2023-07-31T09:15:12;8.82;;;3.75;;
66012;SDS011;52783;50.502;8.190;2023-07-31T09:17:37;9.77;;;3.90;;
66012;SDS011;52783;50.502;8.190;2023-07-31T09:20:13;12.02;;;3.60;;
66012;SDS011;52783;50.502;8.190;2023-07-31T09:22:39;11.52;;;4.05;;
66012;SDS011;52783;50.502;8.190;2023-07-31T09:25:18;11.73;;;4.03;;
66012;SDS011;52783;50.502;8.190;2023-07-31T09:30:19;10.68;;;3.83;;
66012;SDS011;52783;50.502;8.190;2023-07-31T09:32:45;6.28;;;3.45;;
66012;SDS011;52783;50.502;8.190;2023-07-31T09:37:48;8.80;;;3.50;;
66012;SDS011;52783;50.502;8.190;2023-07-31T09:43:09;9.25;;;3.92;;
66012;SDS011;52783;50.502;8.190;2023-07-31T09:45:37;8.25;;;3.65;;
66012;SDS011;52783;50.502;8.190;2023-07-31T09:48:10;10.65;;;3.97;;
66012;SDS011;52783;50.502;8.190;2023-07-31T09:50:38;11.20;;;3.58;;
66012;SDS011;52783;50.502;8.190;2023-07-31T09:53:05;9.20;;;3.72;;
66012;SDS011;52783;50.502;8.190;2023-07-31T09:55:33;8.35;;;3.55;;
66012;SDS011;52783;50.502;8.190;2023-07-31T09:57:59;8.93;;;3.60;;
66012;SDS011;52783;50.502;8.190;2023-07-31T10:00:28;9.45;;;3.83;;
66012;SDS011;52783;50.502;8.190;2023-07-31T10:02:54;11.93;;;3.90;;
66012;SDS011;52783;50.502;8.190;2023-07-31T10:05:24;9.48;;;4.10;;
66012;SDS011;52783;50.502;8.190;2023-07-31T10:07:59;9.93;;;3.88;;
66012;SDS011;52783;50.502;8.190;2023-07-31T10:10:25;10.65;;;4.18;;
66012;SDS011;52783;50.502;8.190;2023-07-31T10:12:52;9.73;;;3.70;;
66012;SDS011;52783;50.502;8.190;2023-07-31T10:15:19;8.15;;;4.10;;
66012;SDS011;52783;50.502;8.190;2023-07-31T10:17:48;11.45;;;4.05;;
66012;SDS011;52783;50.502;8.190;2023-07-31T10:20:14;10.63;;;4.07;;
66012;SDS011;52783;50.502;8.190;2023-07-31T10:22:43;9.95;;;4.20;;
66012;SDS011;52783;50.502;8.190;2023-07-31T10:25:12;12.43;;;4.00;;
66012;SDS011;52783;50.502;8.190;2023-07-31T10:27:40;9.43;;;4.13;;
66012;SDS011;52783;50.502;8.190;2023-07-31T10:30:06;12.15;;;3.85;;
66012;SDS011;52783;50.502;8.190;2023-07-31T10:32:34;12.70;;;4.10;;
66012;SDS011;52783;50.502;8.190;2023-07-31T10:35:01;16.10;;;3.90;;
66012;SDS011;52783;50.502;8.190;2023-07-31T10:37:29;9.23;;;3.80;;
66012;SDS011;52783;50.502;8.190;2023-07-31T10:40:02;13.88;;;3.78;;
66012;SDS011;52783;50.502;8.190;2023-07-31T10:42:30;8.65;;;3.58;;
66012;SDS011;52783;50.502;8.190;2023-07-31T10:45:07;10.65;;;3.83;;
66012;SDS011;52783;50.502;8.190;2023-07-31T10:47:37;9.73;;;3.85;;
66012;SDS011;52783;50.502;8.190;2023-07-31T10:50:15;10.13;;;4.00;;
66012;SDS011;52783;50.502;8.190;2023-07-31T10:52:49;9.15;;;3.72;;
66012;SDS011;52783;50.502;8.190;2023-07-31T10:58:12;11.18;;;4.18;;
66012;SDS011;52783;50.502;8.190;2023-07-31T11:00:39;7.10;;;3.72;;
66012;SDS011;52783;50.502;8.190;2023-07-31T11:03:08;10.25;;;3.50;;
66012;SDS011;52783;50.502;8.190;2023-07-31T11:08:32;8.15;;;3.75;;
66012;SDS011;52783;50.502;8.190;2023-07-31T11:13:27;10.35;;;3.75;;
66012;SDS011;52783;50.502;8.190;2023-07-31T11:15:53;9.10;;;3.42;;
66012;SDS011;52783;50.502;8.190;2023-07-31T11:18:19;9.35;;;3.70;;
66012;SDS011;52783;50.502;8.190;2023-07-31T11:20:44;9.50;;;3.53;;
66012;SDS011;52783;50.502;8.190;2023-07-31T11:23:10;5.30;;;3.40;;
66012;SDS011;52783;50.502;8.190;2023-07-31T11:25:37;7.15;;;3.45;;
66012;SDS011;52783;50.502;8.190;2023-07-31T11:28:09;8.98;;;3.58;;
66012;SDS011;52783;50.502;8.190;2023-07-31T11:30:36;7.32;;;3.38;;
66012;SDS011;52783;50.502;8.190;2023-07-31T11:33:02;8.85;;;3.70;;
66012;SDS011;52783;50.502;8.190;2023-07-31T11:35:30;7.60;;;3.40;;
66012;SDS011;52783;50.502;8.190;2023-07-31T11:37:59;8.00;;;3.58;;
66012;SDS011;52783;50.502;8.190;2023-07-31T11:40:25;13.95;;;3.72;;
66012;SDS011;52783;50.502;8.190;2023-07-31T11:42:57;8.93;;;3.97;;
66012;SDS011;52783;50.502;8.190;2023-07-31T11:45:26;6.70;;;3.28;;
66012;SDS011;52783;50.502;8.190;2023-07-31T11:47:55;10.40;;;3.53;;
66012;SDS011;52783;50.502;8.190;2023-07-31T11:50:21;6.68;;;3.10;;
66012;SDS011;52783;50.502;8.190;2023-07-31T11:52:50;4.07;;;2.80;;
66012;SDS011;52783;50.502;8.190;2023-07-31T11:55:19;6.00;;;3.30;;
66012;SDS011;52783;50.502;8.190;2023-07-31T11:57:45;8.73;;;3.35;;
66012;SDS011;52783;50.502;8.190;2023-07-31T12:00:11;7.13;;;3.38;;
66012;SDS011;52783;50.502;8.190;2023-07-31T12:02:39;12.50;;;3.15;;
66012;SDS011;52783;50.502;8.190;2023-07-31T12:05:06;6.50;;;3.28;;
66012;SDS011;52783;50.502;8.190;2023-07-31T12:07:49;6.35;;;3.25;;
66012;SDS011;52783;50.502;8.190;2023-07-31T12:10:31;5.93;;;3.00;;
66012;SDS011;52783;50.502;8.190;2023-07-31T12:15:37;7.35;;;3.05;;
66012;SDS011;52783;50.502;8.190;2023-07-31T12:18:05;6.63;;;3.20;;
66012;SDS011;52783;50.502;8.190;2023-07-31T12:20:32;5.63;;;2.70;;
66012;SDS011;52783;50.502;8.190;2023-07-31T12:22:58;9.57;;;2.80;;
66012;SDS011;52783;50.502;8.190;2023-07-31T12:25:30;7.68;;;2.85;;
66012;SDS011;52783;50.502;8.190;2023-07-31T12:27:57;8.43;;;2.80;;
66012;SDS011;52783;50.502;8.190;2023-07-31T12:30:34;5.23;;;2.43;;
66012;SDS011;52783;50.502;8.190;2023-07-31T12:35:36;4.97;;;2.50;;
66012;SDS011;52783;50.502;8.190;2023-07-31T12:38:04;5.57;;;2.17;;
66012;SDS011;52783;50.502;8.190;2023-07-31T12:40:30;4.93;;;2.60;;
66012;SDS011;52783;50.502;8.190;2023-07-31T12:42:55;6.45;;;3.00;;
66012;SDS011;52783;50.502;8.190;2023-07-31T12:45:21;6.53;;;2.55;;
66012;SDS011;52783;50.502;8.190;2023-07-31T12:47:48;4.25;;;2.38;;
66012;SDS011;52783;50.502;8.190;2023-07-31T12:50:13;6.93;;;2.30;;
66012;SDS011;52783;50.502;8.190;2023-07-31T12:52:39;4.95;;;2.10;;
66012;SDS011;52783;50.502;8.190;2023-07-31T12:55:05;6.55;;;2.20;;
66012;SDS011;52783;50.502;8.190;2023-07-31T12:57:30;5.70;;;2.30;;
66012;SDS011;52783;50.502;8.190;2023-07-31T12:59:56;6.68;;;2.13;;
66012;SDS011;52783;50.502;8.190;2023-07-31T13:02:21;3.25;;;1.90;;
66012;SDS011;52783;50.502;8.190;2023-07-31T13:04:47;2.75;;;2.13;;
66012;SDS011;52783;50.502;8.190;2023-07-31T13:07:14;4.80;;;2.58;;
66012;SDS011;52783;50.502;8.190;2023-07-31T13:09:39;6.90;;;2.45;;
66012;SDS011;52783;50.502;8.190;2023-07-31T13:12:05;3.53;;;2.40;;
66012;SDS011;52783;50.502;8.190;2023-07-31T13:14:31;3.05;;;2.30;;
66012;SDS011;52783;50.502;8.190;2023-07-31T13:16:56;6.10;;;2.60;;
66012;SDS011;52783;50.502;8.190;2023-07-31T13:19:22;6.28;;;2.80;;
66012;SDS011;52783;50.502;8.190;2023-07-31T13:21:48;3.42;;;2.40;;
66012;SDS011;52783;50.502;8.190;2023-07-31T13:24:13;5.82;;;2.40;;
66012;SDS011;52783;50.502;8.190;2023-07-31T13:26:39;4.18;;;2.38;;
66012;SDS011;52783;50.502;8.190;2023-07-31T13:29:04;6.57;;;2.60;;
66012;SDS011;52783;50.502;8.190;2023-07-31T13:31:30;4.05;;;2.65;;
66012;SDS011;52783;50.502;8.190;2023-07-31T13:33:55;6.32;;;3.03;;
66012;SDS011;52783;50.502;8.190;2023-07-31T13:36:22;3.65;;;2.88;;
66012;SDS011;52783;50.502;8.190;2023-07-31T13:38:47;8.07;;;3.20;;
66012;SDS011;52783;50.502;8.190;2023-07-31T13:41:13;5.00;;;3.08;;
66012;SDS011;52783;50.502;8.190;2023-07-31T13:43:38;4.28;;;2.83;;
66012;SDS011;52783;50.502;8.190;2023-07-31T13:46:04;6.55;;;2.85;;
66012;SDS011;52783;50.502;8.190;2023-07-31T13:48:35;6.80;;;3.10;;
66012;SDS011;52783;50.502;8.190;2023-07-31T13:51:01;5.95;;;2.70;;
66012;SDS011;52783;50.502;8.190;2023-07-31T13:53:26;4.47;;;2.83;;
66012;SDS011;52783;50.502;8.190;2023-07-31T13:55:52;4.50;;;2.50;;
66012;SDS011;52783;50.502;8.190;2023-07-31T13:58:17;5.43;;;2.92;;
66012;SDS011;52783;50.502;8.190;2023-07-31T14:00:43;7.75;;;2.95;;
66012;SDS011;52783;50.502;8.190;2023-07-31T14:03:08;5.35;;;2.90;;
66012;SDS011;52783;50.502;8.190;2023-07-31T14:05:34;4.43;;;2.25;;
66012;SDS011;52783;50.502;8.190;2023-07-31T14:08:00;3.00;;;2.28;;
66012;SDS011;52783;50.502;8.190;2023-07-31T14:10:26;4.38;;;2.50;;
66012;SDS011;52783;50.502;8.190;2023-07-31T14:12:52;5.68;;;2.35;;
66012;SDS011;52783;50.502;8.190;2023-07-31T14:15:17;3.15;;;2.38;;
66012;SDS011;52783;50.502;8.190;2023-07-31T14:17:43;5.60;;;2.40;;
66012;SDS011;52783;50.502;8.190;2023-07-31T14:20:08;2.88;;;2.33;;
66012;SDS011;52783;50.502;8.190;2023-07-31T14:22:34;5.15;;;2.45;;
66012;SDS011;52783;50.502;8.190;2023-07-31T14:25:00;3.97;;;2.15;;
66012;SDS011;52783;50.502;8.190;2023-07-31T14:27:26;3.83;;;1.88;;
66012;SDS011;52783;50.502;8.190;2023-07-31T14:29:52;6.35;;;2.30;;
66012;SDS011;52783;50.502;8.190;2023-07-31T14:32:17;5.10;;;1.98;;
66012;SDS011;52783;50.502;8.190;2023-07-31T14:34:43;4.00;;;1.90;;
66012;SDS011;52783;50.502;8.190;2023-07-31T14:37:08;3.92;;;1.77;;
66012;SDS011;52783;50.502;8.190;2023-07-31T14:39:34;4.57;;;1.88;;
66012;SDS011;52783;50.502;8.190;2023-07-31T14:41:59;2.85;;;2.05;;
66012;SDS011;52783;50.502;8.190;2023-07-31T14:44:25;2.15;;;1.67;;
66012;SDS011;52783;50.502;8.190;2023-07-31T14:46:50;4.13;;;1.75;;
66012;SDS011;52783;50.502;8.190;2023-07-31T14:49:16;4.78;;;2.00;;
66012;SDS011;52783;50.502;8.190;2023-07-31T14:51:42;2.60;;;1.88;;
66012;SDS011;52783;50.502;8.190;2023-07-31T14:54:08;5.30;;;1.90;;
66012;SDS011;52783;50.502;8.190;2023-07-31T14:56:33;2.42;;;1.70;;
66012;SDS011;52783;50.502;8.190;2023-07-31T14:58:59;2.28;;;1.85;;
66012;SDS011;52783;50.502;8.190;2023-07-31T15:01:25;2.80;;;1.75;;
66012;SDS011;52783;50.502;8.190;2023-07-31T15:03:50;4.10;;;1.70;;
66012;SDS011;52783;50.502;8.190;2023-07-31T15:06:16;1.75;;;1.40;;
66012;SDS011;52783;50.502;8.190;2023-07-31T15:08:41;3.67;;;1.60;;
66012;SDS011;52783;50.502;8.190;2023-07-31T15:11:07;2.78;;;1.48;;